Etusivu
METAR-TAF:

METAR-TAF

Lentoasemat :

Sion, Sveitsi

Leveyspiiri: 46-13N, Pituuspiiri: 007-20E, korkeus merenpinnasta: 482 m

Tämänhetkinen sää

Tämä raportti tehtiin 21 minuuttia sitten, kello 18.50 UTC
tyyntä
Lämpötila 2°C
Kosteus 75%
Ilmanpaine 1005 hPa
Näkyvyys 10 km tai enemmän
ei pilviä alle 1500 m:ssä eikä cumulonimbus-pilviä

METAR: LSGS 121850Z AUTO 00000KT CAVOK 02/M02 Q1005

Aika: 20:11 (19:11 UTC)

Sääennuste

Tämä raportti tehtiin 4 tuntia ja 46 minuuttia sitten, kello 14.25 UTC
Ennuste voimassa 12. päivästä klo 15 UTC - 12. päivään klo 24 UTC
Tuuli 3 kn eri suunnista
Näkyvyys 10 km tai enemmän
Muutamia pilviä 7000 ft:n korkeudessa

TAF: LSGS 121425Z 1215/1224 VRB03KT 9999 FEW070

Säähavainnot ja -ennusteet yli 4000 lentoasemalta (METAR- ja TAF-raportit).

Käytössä olevat sääasemat on merkitty karttaan keltaisilla ja punaisilla pisteillä.

Aseta hiiri pisteen päälle nähdäksesi sääaseman nimen.

Klikkaa sitten nähdäksesi säähavainnot ja -ennusteet.

Kartan vaihtaminen: klikkaa mustalla rastilla varustettuja vihreitä pisteitä, niin voit zoomata sisään; viivalla varustettua vihreää pistettä, niin voit zoomata ulos tai vihreitä nuolia, niin pääset viereisille kartoille.


METAR-TAF: